createdAt,value
2019-03-16T00:00:09.071Z,98680.84
2019-03-16T00:02:38.681Z,98665.45
2019-03-16T00:05:08.447Z,98670.97
2019-03-16T00:07:38.064Z,98663.06
2019-03-16T00:10:08.813Z,98644.59
2019-03-16T00:12:38.572Z,98651.81
2019-03-16T00:15:08.281Z,98640.16
2019-03-16T00:17:37.898Z,98643.70
2019-03-16T00:20:07.841Z,98638.95
2019-03-16T00:22:37.446Z,98632.80
2019-03-16T00:25:07.429Z,98638.44
2019-03-16T00:27:37.027Z,98641.36
2019-03-16T00:30:07.044Z,98638.20
2019-03-16T00:32:36.686Z,98638.95
2019-03-16T00:35:06.493Z,98638.41
2019-03-16T00:37:36.077Z,98643.44
2019-03-16T00:40:05.848Z,98642.92
2019-03-16T00:42:35.449Z,98633.99
2019-03-16T00:45:05.273Z,98632.24
2019-03-16T00:47:34.868Z,98631.83
2019-03-16T00:50:04.776Z,98635.19
2019-03-16T00:52:34.399Z,98642.13
2019-03-16T00:55:04.151Z,98631.68
2019-03-16T00:57:33.815Z,98631.38
2019-03-16T01:00:03.452Z,98625.42
2019-03-16T01:02:33.161Z,98619.69
2019-03-16T01:05:02.810Z,98618.55
2019-03-16T01:07:32.432Z,98615.45
2019-03-16T01:10:02.055Z,98613.36
2019-03-16T01:12:31.683Z,98613.81
2019-03-16T01:15:01.281Z,98623.45
2019-03-16T01:17:30.941Z,98625.38
2019-03-16T01:20:00.546Z,98623.70
2019-03-16T01:22:30.146Z,98620.25
2019-03-16T01:24:59.759Z,98617.73
2019-03-16T01:27:29.390Z,98606.86
2019-03-16T01:29:59.072Z,98607.25
2019-03-16T01:32:40.194Z,98614.27
2019-03-16T01:35:00.128Z,98613.02
2019-03-16T01:37:29.691Z,98623.25
2019-03-16T01:39:59.313Z,98624.88
2019-03-16T01:42:28.961Z,98614.30
2019-03-16T01:44:58.599Z,98628.81
2019-03-16T01:47:28.254Z,98627.75
2019-03-16T01:49:57.846Z,98635.28
2019-03-16T01:52:27.471Z,98643.61
2019-03-16T01:54:57.114Z,98638.08
2019-03-16T01:57:26.728Z,98637.11
2019-03-16T01:59:56.317Z,98634.34
2019-03-16T02:02:25.965Z,98638.78
2019-03-16T02:04:55.560Z,98629.84
2019-03-16T02:07:25.197Z,98634.27
2019-03-16T02:09:54.789Z,98643.94
2019-03-16T02:12:24.383Z,98648.23
2019-03-16T02:14:53.984Z,98650.47
2019-03-16T02:17:23.579Z,98656.03
2019-03-16T02:19:53.219Z,98650.78
2019-03-16T02:22:23.111Z,98647.41
2019-03-16T02:24:52.733Z,98651.67
2019-03-16T02:27:22.363Z,98655.19
2019-03-16T02:29:51.953Z,98653.57
2019-03-16T02:32:21.615Z,98644.86
2019-03-16T02:34:51.235Z,98643.70
2019-03-16T02:37:20.807Z,98634.36
2019-03-16T02:39:50.441Z,98628.06
2019-03-16T02:42:20.035Z,98628.27
2019-03-16T02:44:49.676Z,98628.59
2019-03-16T02:47:19.299Z,98628.06
2019-03-16T02:49:49.009Z,98621.97
2019-03-16T02:52:18.623Z,98627.60
2019-03-16T02:54:48.218Z,98632.11
2019-03-16T02:57:17.862Z,98628.77
2019-03-16T02:59:47.444Z,98626.64
2019-03-16T03:02:17.076Z,98633.67
2019-03-16T03:04:46.897Z,98634.96
2019-03-16T03:07:16.519Z,98638.06
2019-03-16T03:09:46.146Z,98638.20
2019-03-16T03:12:15.755Z,98642.80
2019-03-16T03:14:45.299Z,98642.57
2019-03-16T03:17:14.903Z,98645.66
2019-03-16T03:19:44.505Z,98641.02
2019-03-16T03:22:14.216Z,98645.25
2019-03-16T03:24:44.657Z,98642.30
2019-03-16T03:27:14.442Z,98640.89
2019-03-16T03:29:44.109Z,98647.36
2019-03-16T03:32:13.693Z,98648.17
2019-03-16T03:34:43.370Z,98637.54
2019-03-16T03:37:12.957Z,98649.58
2019-03-16T03:39:42.498Z,98649.60
2019-03-16T03:42:12.146Z,98644.40
2019-03-16T03:44:41.750Z,98636.23
2019-03-16T03:47:11.503Z,98628.41
2019-03-16T03:49:41.112Z,98617.61
2019-03-16T03:52:10.698Z,98620.95
2019-03-16T03:54:40.360Z,98625.81
2019-03-16T03:57:09.994Z,98625.35
2019-03-16T03:59:39.614Z,98631.63
2019-03-16T04:02:09.265Z,98636.42
2019-03-16T04:04:38.896Z,98636.27
2019-03-16T04:07:08.510Z,98630.48
2019-03-16T04:09:38.242Z,98632.09
2019-03-16T04:12:07.941Z,98635.29
2019-03-16T04:14:37.732Z,98636.95
2019-03-16T04:17:07.346Z,98650.13
2019-03-16T04:19:36.969Z,98648.42
2019-03-16T04:22:06.629Z,98659.00
2019-03-16T04:24:36.313Z,98649.77
2019-03-16T04:27:16.051Z,98655.56
2019-03-16T04:29:37.277Z,98650.78
2019-03-16T04:32:06.879Z,98648.58
2019-03-16T04:34:36.462Z,98645.23
2019-03-16T04:37:06.190Z,98641.66
2019-03-16T04:39:35.775Z,98628.56
2019-03-16T04:42:05.406Z,98602.02
2019-03-16T04:44:35.049Z,98612.66
2019-03-16T04:47:04.801Z,98605.30
2019-03-16T04:49:34.388Z,98604.35
2019-03-16T04:52:03.972Z,98591.89
2019-03-16T04:54:33.579Z,98593.23
2019-03-16T04:57:03.262Z,98586.84
2019-03-16T04:59:32.869Z,98570.00
2019-03-16T05:02:02.528Z,98566.89
2019-03-16T05:04:41.916Z,98566.25
2019-03-16T05:07:03.470Z,98573.39
2019-03-16T05:09:33.224Z,98568.73
2019-03-16T05:12:02.806Z,98569.59
2019-03-16T05:14:32.562Z,98572.77
2019-03-16T05:17:02.217Z,98587.50
2019-03-16T05:19:31.823Z,98599.13
2019-03-16T05:22:01.469Z,98606.77
2019-03-16T05:24:31.098Z,98620.56
2019-03-16T05:27:00.713Z,98624.16
2019-03-16T05:29:30.315Z,98623.21
2019-03-16T05:31:59.903Z,98619.34
2019-03-16T05:34:29.530Z,98611.88
2019-03-16T05:36:59.131Z,98620.37
2019-03-16T05:39:28.719Z,98617.95
2019-03-16T05:41:58.337Z,98613.20
2019-03-16T05:44:28.018Z,98617.16
2019-03-16T05:46:57.649Z,98608.20
2019-03-16T05:49:27.262Z,98615.08
2019-03-16T05:51:56.952Z,98610.26
2019-03-16T05:54:26.537Z,98607.27
2019-03-16T05:56:56.127Z,98615.95
2019-03-16T05:59:25.750Z,98613.57
2019-03-16T06:01:55.508Z,98626.69
2019-03-16T06:04:25.128Z,98623.15
2019-03-16T06:06:54.711Z,98622.88
2019-03-16T06:09:24.276Z,98634.52
2019-03-16T06:11:53.854Z,98625.16
2019-03-16T06:14:23.504Z,98620.84
2019-03-16T06:16:53.110Z,98621.73
2019-03-16T06:19:22.707Z,98632.09
2019-03-16T06:21:52.352Z,98644.52
2019-03-16T06:24:21.983Z,98652.90
2019-03-16T06:26:51.584Z,98669.38
2019-03-16T06:29:21.186Z,98677.13
2019-03-16T06:31:50.785Z,98684.55
2019-03-16T06:34:20.398Z,98692.66
2019-03-16T06:36:49.977Z,98693.16
2019-03-16T06:39:19.607Z,98709.41
2019-03-16T06:41:49.167Z,98729.85
2019-03-16T06:44:18.770Z,98735.70
2019-03-16T06:46:48.339Z,98733.47
2019-03-16T06:49:17.922Z,98740.30
2019-03-16T06:51:47.556Z,98741.91
2019-03-16T06:54:17.136Z,98728.66
2019-03-16T06:56:46.747Z,98731.30
2019-03-16T06:59:16.360Z,98730.63
2019-03-16T07:01:45.927Z,98729.83
2019-03-16T07:04:15.580Z,98715.08
2019-03-16T07:06:45.178Z,98710.82
2019-03-16T07:09:14.793Z,98696.73
2019-03-16T07:11:44.464Z,98691.77
2019-03-16T07:14:14.077Z,98687.05
2019-03-16T07:16:43.749Z,98676.95
2019-03-16T07:19:13.425Z,98680.09
2019-03-16T07:21:47.815Z,98682.63
2019-03-16T07:24:17.446Z,98672.94
2019-03-16T07:26:47.041Z,98659.27
2019-03-16T07:29:16.676Z,98609.67
2019-03-16T07:31:46.288Z,98655.12
2019-03-16T07:34:15.900Z,98644.55
2019-03-16T07:36:45.562Z,98623.88
2019-03-16T07:39:15.174Z,98623.47
2019-03-16T07:41:44.877Z,98611.16
2019-03-16T07:44:14.530Z,98608.74
2019-03-16T07:46:44.163Z,98606.00
2019-03-16T07:49:13.809Z,98614.77
2019-03-16T07:51:43.421Z,98606.11
2019-03-16T07:54:13.026Z,98615.22
2019-03-16T07:56:42.635Z,98614.30
2019-03-16T07:59:12.228Z,98614.53
2019-03-16T08:01:41.879Z,98625.68
2019-03-16T08:04:11.493Z,98616.74
2019-03-16T08:06:41.109Z,98628.78
2019-03-16T08:09:10.733Z,98636.45
2019-03-16T08:11:40.322Z,98631.28
2019-03-16T08:14:09.968Z,98634.64
2019-03-16T08:16:39.568Z,98634.27
2019-03-16T08:19:09.341Z,98643.58
2019-03-16T08:21:38.975Z,98643.55
2019-03-16T08:24:08.572Z,98649.08
2019-03-16T08:26:38.235Z,98628.66
2019-03-16T08:29:07.837Z,98637.09
2019-03-16T08:31:37.574Z,98634.72
2019-03-16T08:34:07.191Z,98634.88
2019-03-16T08:36:36.757Z,98641.81
2019-03-16T08:39:08.184Z,98650.02
2019-03-16T08:41:37.803Z,98627.82
2019-03-16T08:44:07.373Z,98623.86
2019-03-16T08:46:37.015Z,98623.30
2019-03-16T08:49:06.670Z,98619.80
2019-03-16T08:51:36.235Z,98609.22
2019-03-16T08:54:05.806Z,98597.66
2019-03-16T08:56:35.401Z,98575.72
2019-03-16T08:59:05.011Z,98568.62
2019-03-16T09:01:34.706Z,98569.13
2019-03-16T09:04:04.293Z,98572.55
2019-03-16T09:06:33.899Z,98568.37
2019-03-16T09:09:04.636Z,98583.03
2019-03-16T09:11:34.228Z,98586.92
2019-03-16T09:14:03.815Z,98585.75
2019-03-16T09:16:33.419Z,98571.41
2019-03-16T09:19:03.015Z,98572.36
2019-03-16T09:21:32.810Z,98576.78
2019-03-16T09:24:02.651Z,98584.02
2019-03-16T09:26:32.240Z,98571.20
2019-03-16T09:29:10.313Z,98562.53
2019-03-16T09:31:33.195Z,98575.97
2019-03-16T09:34:02.812Z,98568.69
2019-03-16T09:36:32.414Z,98582.06
2019-03-16T09:39:02.083Z,98585.47
2019-03-16T09:41:31.805Z,98580.20
2019-03-16T09:44:02.148Z,98567.44
2019-03-16T09:46:31.895Z,98561.70
2019-03-16T09:49:01.517Z,98561.22
2019-03-16T09:51:31.143Z,98556.16
2019-03-16T09:54:00.778Z,98560.56
2019-03-16T09:56:30.359Z,98568.13
2019-03-16T09:58:59.959Z,98553.77
2019-03-16T10:01:29.625Z,98552.90
2019-03-16T10:03:59.333Z,98547.69
2019-03-16T10:06:28.936Z,98532.55
2019-03-16T10:08:58.522Z,98533.38
2019-03-16T10:11:28.124Z,98533.31
2019-03-16T10:13:57.773Z,98517.97
2019-03-16T10:16:27.400Z,98528.29
2019-03-16T10:18:59.087Z,98534.73
2019-03-16T10:21:28.743Z,98531.34
2019-03-16T10:23:58.345Z,98538.30
2019-03-16T10:26:27.933Z,98535.35
2019-03-16T10:28:57.519Z,98533.82
2019-03-16T10:31:27.105Z,98540.67
2019-03-16T10:33:56.734Z,98520.36
2019-03-16T10:36:26.332Z,98516.12
2019-03-16T10:38:56.287Z,98510.24
2019-03-16T10:41:25.941Z,98499.48
2019-03-16T10:43:55.525Z,98491.11
2019-03-16T10:46:25.145Z,98477.52
2019-03-16T10:48:54.705Z,98464.58
2019-03-16T10:51:24.285Z,98470.98
2019-03-16T10:53:53.913Z,98467.64
2019-03-16T10:56:23.492Z,98459.11
2019-03-16T10:58:56.738Z,98459.06
2019-03-16T11:01:24.374Z,98449.84
2019-03-16T11:03:53.956Z,98435.54
2019-03-16T11:06:23.591Z,98435.39
2019-03-16T11:08:53.184Z,98429.84
2019-03-16T11:13:51.044Z,98406.75
2019-03-16T11:16:20.624Z,98409.33
2019-03-16T11:18:50.246Z,98406.63
2019-03-16T11:21:19.827Z,98398.70
2019-03-16T11:23:49.415Z,98398.00
2019-03-16T11:26:19.061Z,98398.13
2019-03-16T11:28:48.648Z,98384.38
2019-03-16T11:31:18.214Z,98391.05
2019-03-16T11:33:48.527Z,98389.63
2019-03-16T11:36:18.213Z,98373.62
2019-03-16T11:38:47.818Z,98364.95
2019-03-16T11:41:17.562Z,98359.25
2019-03-16T11:43:47.146Z,98368.59
2019-03-16T11:46:16.754Z,98365.52
2019-03-16T11:48:46.370Z,98353.73
2019-03-16T11:51:15.977Z,98357.92
2019-03-16T11:53:45.568Z,98358.40
2019-03-16T11:56:18.250Z,98359.06
2019-03-16T11:58:46.548Z,98360.33
2019-03-16T12:01:16.189Z,98362.31
2019-03-16T12:03:45.807Z,98352.61
2019-03-16T12:06:15.484Z,98343.44
2019-03-16T12:08:45.175Z,98343.12
2019-03-16T12:11:14.786Z,98331.06
2019-03-16T12:13:44.395Z,98337.97
2019-03-16T12:16:13.972Z,98336.47
2019-03-16T12:18:43.588Z,98334.88
2019-03-16T12:21:13.252Z,98340.58
2019-03-16T12:23:42.830Z,98348.84
2019-03-16T12:26:12.418Z,98349.91
2019-03-16T12:28:42.084Z,98343.48
2019-03-16T12:31:11.667Z,98341.31
2019-03-16T12:33:41.252Z,98339.30
2019-03-16T12:36:10.843Z,98331.61
2019-03-16T12:38:40.434Z,98332.13
2019-03-16T12:41:10.081Z,98327.31
2019-03-16T12:43:39.661Z,98331.89
2019-03-16T12:46:09.242Z,98348.57
2019-03-16T12:48:38.979Z,98349.22
2019-03-16T12:51:08.580Z,98348.47
2019-03-16T12:53:39.529Z,98356.06
2019-03-16T12:56:09.275Z,98361.50
2019-03-16T12:58:38.885Z,98358.88
2019-03-16T13:01:08.504Z,98363.75
2019-03-16T13:03:38.123Z,98362.09
2019-03-16T13:06:07.700Z,98364.34
2019-03-16T13:08:37.394Z,98357.77
2019-03-16T13:11:07.012Z,98360.91
2019-03-16T13:13:36.617Z,98363.34
2019-03-16T13:16:06.271Z,98373.59
2019-03-16T13:18:35.875Z,98347.16
2019-03-16T13:21:05.462Z,98376.09
2019-03-16T13:23:35.054Z,98375.09
2019-03-16T13:26:04.655Z,98378.66
2019-03-16T13:28:35.709Z,98378.58
2019-03-16T13:31:05.424Z,98381.28
2019-03-16T13:33:35.045Z,98385.75
2019-03-16T13:36:05.186Z,98388.84
2019-03-16T13:38:34.777Z,98396.09
2019-03-16T13:41:04.391Z,98396.89
2019-03-16T13:43:33.981Z,98396.44
2019-03-16T13:46:03.563Z,98400.58
2019-03-16T13:48:33.190Z,98401.74
2019-03-16T13:51:02.830Z,98397.75
2019-03-16T13:53:32.780Z,98406.00
2019-03-16T13:56:02.794Z,98405.82
2019-03-16T13:58:32.354Z,98420.54
2019-03-16T14:01:01.940Z,98429.92
2019-03-16T14:03:31.517Z,98405.61
2019-03-16T14:06:01.311Z,98412.31
2019-03-16T14:08:30.945Z,98412.66
2019-03-16T14:11:00.554Z,98412.94
2019-03-16T14:13:30.414Z,98423.02
2019-03-16T14:16:00.068Z,98423.28
2019-03-16T14:18:29.728Z,98421.58
2019-03-16T14:20:59.327Z,98429.34
2019-03-16T14:23:28.913Z,98416.00
2019-03-16T14:25:58.515Z,98415.61
2019-03-16T14:28:28.561Z,98417.34
2019-03-16T14:30:58.353Z,98420.80
2019-03-16T14:33:28.218Z,98412.92
2019-03-16T14:35:57.854Z,98432.13
2019-03-16T14:38:27.454Z,98414.63
2019-03-16T14:40:57.140Z,98415.70
2019-03-16T14:43:26.756Z,98421.50
2019-03-16T14:45:56.367Z,98419.55
2019-03-16T14:48:26.181Z,98422.73
2019-03-16T14:50:55.843Z,98433.66
2019-03-16T14:53:25.405Z,98422.16
2019-03-16T14:55:56.389Z,98429.13
2019-03-16T14:58:26.185Z,98429.59
2019-03-16T15:00:55.833Z,98426.84
2019-03-16T15:03:25.386Z,98414.27
2019-03-16T15:05:55.046Z,98421.55
2019-03-16T15:08:24.696Z,98426.52
2019-03-16T15:10:54.420Z,98426.41
2019-03-16T15:13:26.775Z,98435.26
2019-03-16T15:15:55.443Z,98439.46
2019-03-16T15:18:25.039Z,98449.84
2019-03-16T15:20:54.679Z,98449.95
2019-03-16T15:23:24.257Z,98449.79
2019-03-16T15:25:53.877Z,98451.98
2019-03-16T15:28:23.585Z,98455.97
2019-03-16T15:30:53.175Z,98457.06
2019-03-16T15:33:22.765Z,98456.35
2019-03-16T15:35:52.378Z,98463.84
2019-03-16T15:38:21.964Z,98467.12
2019-03-16T15:40:51.595Z,98455.39
2019-03-16T15:43:21.184Z,98458.53
2019-03-16T15:45:50.764Z,98464.62
2019-03-16T15:51:50.130Z,98466.47
2019-03-16T15:54:19.776Z,98480.05
2019-03-16T15:56:49.355Z,98478.99
2019-03-16T15:59:18.988Z,98482.66
2019-03-16T16:01:48.631Z,98483.59
2019-03-16T16:04:18.235Z,98479.27
2019-03-16T16:06:47.901Z,98485.45
2019-03-16T16:09:17.506Z,98484.17
2019-03-16T16:11:47.215Z,98485.05
2019-03-16T16:14:16.827Z,98487.61
2019-03-16T16:16:46.406Z,98490.67
2019-03-16T16:19:16.021Z,98494.45
2019-03-16T16:21:45.584Z,98504.54
2019-03-16T16:24:15.142Z,98494.34
2019-03-16T16:26:44.780Z,98490.06
2019-03-16T16:29:14.349Z,98490.67
2019-03-16T16:31:43.924Z,98487.16
2019-03-16T16:34:13.527Z,98497.11
2019-03-16T16:36:43.147Z,98491.29
2019-03-16T16:39:14.414Z,98493.81
2019-03-16T16:41:44.182Z,98495.25
2019-03-16T16:44:13.778Z,98491.89
2019-03-16T16:46:43.381Z,98495.75
2019-03-16T16:49:12.972Z,98497.73
2019-03-16T16:51:42.668Z,98504.23
2019-03-16T16:54:12.248Z,98502.05
2019-03-16T16:56:41.827Z,98508.98
2019-03-16T16:59:11.482Z,98514.30
2019-03-16T17:01:41.072Z,98512.13
2019-03-16T17:04:10.719Z,98510.95
2019-03-16T17:06:40.341Z,98510.88
2019-03-16T17:09:10.072Z,98509.29
2019-03-16T17:11:39.717Z,98522.06
2019-03-16T17:14:09.308Z,98531.28
2019-03-16T17:16:38.928Z,98530.59
2019-03-16T17:19:08.564Z,98525.97
2019-03-16T17:21:38.162Z,98532.73
2019-03-16T17:24:07.791Z,98539.58
2019-03-16T17:26:37.394Z,98538.14
2019-03-16T17:29:06.975Z,98545.21
2019-03-16T17:31:42.194Z,98540.44
2019-03-16T17:34:07.928Z,98542.64
2019-03-16T17:36:37.580Z,98547.30
2019-03-16T17:39:08.552Z,98553.93
2019-03-16T17:41:38.173Z,98563.59
2019-03-16T17:44:07.869Z,98564.19
2019-03-16T17:46:37.447Z,98567.27
2019-03-16T17:49:07.039Z,98564.83
2019-03-16T17:51:36.655Z,98565.59
2019-03-16T17:54:06.238Z,98578.68
2019-03-16T17:56:35.877Z,98579.55
2019-03-16T17:59:05.469Z,98588.52
2019-03-16T18:01:35.061Z,98587.88
2019-03-16T18:04:04.690Z,98561.80
2019-03-16T18:06:34.307Z,98593.58
2019-03-16T18:09:04.471Z,98585.48
2019-03-16T18:11:34.066Z,98595.22
2019-03-16T18:14:03.689Z,98593.14
2019-03-16T18:16:33.403Z,98591.75
2019-03-16T18:19:02.981Z,98598.65
2019-03-16T18:21:32.656Z,98595.16
2019-03-16T18:24:02.285Z,98597.96
2019-03-16T18:26:31.852Z,98596.54
2019-03-16T18:29:01.433Z,98593.73
2019-03-16T18:31:31.034Z,98594.94
2019-03-16T18:34:00.615Z,98592.17
2019-03-16T18:36:30.256Z,98596.56
2019-03-16T18:38:59.832Z,98598.53
2019-03-16T18:41:29.424Z,98597.60
2019-03-16T18:43:59.050Z,98610.41
2019-03-16T18:46:28.645Z,98611.89
2019-03-16T18:48:58.231Z,98613.25
2019-03-16T18:51:27.818Z,98620.58
2019-03-16T18:53:57.425Z,98623.95
2019-03-16T18:56:27.019Z,98631.50
2019-03-16T18:58:56.602Z,98629.44
2019-03-16T19:01:26.210Z,98636.39
2019-03-16T19:03:55.835Z,98645.20
2019-03-16T19:06:25.416Z,98647.27
2019-03-16T19:08:55.026Z,98649.81
2019-03-16T19:11:24.591Z,98655.36
2019-03-16T19:13:54.205Z,98659.81
2019-03-16T19:16:23.841Z,98653.00
2019-03-16T19:18:53.413Z,98653.60
2019-03-16T19:21:23.027Z,98663.11
2019-03-16T19:23:52.617Z,98662.09
2019-03-16T19:26:22.209Z,98667.83
2019-03-16T19:28:51.846Z,98669.66
2019-03-16T19:31:21.468Z,98672.98
2019-03-16T19:33:52.925Z,98671.05
2019-03-16T19:36:22.427Z,98677.53
2019-03-16T19:38:52.036Z,98677.21
2019-03-16T19:41:21.602Z,98668.41
2019-03-16T19:43:51.354Z,98669.55
2019-03-16T19:46:20.991Z,98673.64
2019-03-16T19:48:50.634Z,98649.63
2019-03-16T19:51:20.226Z,98681.20
2019-03-16T19:53:49.800Z,98679.01
2019-03-16T19:56:19.525Z,98672.42
2019-03-16T19:59:00.259Z,98683.20
2019-03-16T20:01:20.511Z,98680.14
2019-03-16T20:03:50.164Z,98685.27
2019-03-16T20:06:25.617Z,98689.05
2019-03-16T20:08:51.119Z,98693.38
2019-03-16T20:11:20.805Z,98696.88
2019-03-16T20:13:50.390Z,98699.97
2019-03-16T20:16:20.007Z,98705.72
2019-03-16T20:18:49.583Z,98716.87
2019-03-16T20:21:19.194Z,98708.50
2019-03-16T20:23:48.816Z,98721.23
2019-03-16T20:26:18.492Z,98720.34
2019-03-16T20:28:48.148Z,98721.26
2019-03-16T20:31:17.719Z,98726.19
2019-03-16T20:33:47.369Z,98734.52
2019-03-16T20:36:17.030Z,98741.13
2019-03-16T20:38:46.715Z,98749.77
2019-03-16T20:41:16.285Z,98748.12
2019-03-16T20:43:45.958Z,98751.86
2019-03-16T20:46:15.602Z,98760.23
2019-03-16T20:48:45.186Z,98756.03
2019-03-16T20:51:14.790Z,98773.87
2019-03-16T20:53:44.403Z,98767.67
2019-03-16T20:56:14.049Z,98771.43
2019-03-16T20:58:43.622Z,98779.96
2019-03-16T21:01:13.316Z,98783.88
2019-03-16T21:03:42.991Z,98787.13
2019-03-16T21:06:12.577Z,98786.98
2019-03-16T21:08:42.179Z,98796.63
2019-03-16T21:11:11.772Z,98794.09
2019-03-16T21:13:41.347Z,98807.41
2019-03-16T21:16:10.978Z,98804.02
2019-03-16T21:18:40.580Z,98807.20
2019-03-16T21:21:10.218Z,98807.13
2019-03-16T21:23:39.806Z,98805.77
2019-03-16T21:26:09.411Z,98804.70
2019-03-16T21:28:39.040Z,98808.62
2019-03-16T21:31:08.642Z,98808.41
2019-03-16T21:33:38.214Z,98809.69
2019-03-16T21:36:07.815Z,98812.91
2019-03-16T21:38:37.436Z,98810.38
2019-03-16T21:41:07.051Z,98807.41
2019-03-16T21:43:36.646Z,98807.80
2019-03-16T21:46:06.255Z,98805.45
2019-03-16T21:48:36.268Z,98815.62
2019-03-16T21:51:05.929Z,98817.58
2019-03-16T21:53:35.500Z,98824.52
2019-03-16T21:56:05.173Z,98816.98
2019-03-16T21:58:34.791Z,98823.77
2019-03-16T22:01:04.603Z,98824.02
2019-03-16T22:03:42.071Z,98825.88
2019-03-16T22:06:05.528Z,98822.20
2019-03-16T22:08:35.084Z,98819.61
2019-03-16T22:11:05.485Z,98823.25
2019-03-16T22:13:35.168Z,98826.33
2019-03-16T22:16:04.762Z,98823.61
2019-03-16T22:18:34.378Z,98822.89
2019-03-16T22:21:04.033Z,98832.27
2019-03-16T22:23:33.599Z,98829.41
2019-03-16T22:26:03.210Z,98829.34
2019-03-16T22:28:32.796Z,98834.37
2019-03-16T22:31:02.402Z,98827.98
2019-03-16T22:33:32.039Z,98821.22
2019-03-16T22:36:01.666Z,98821.44
2019-03-16T22:38:31.240Z,98827.91
2019-03-16T22:41:00.873Z,98831.16
2019-03-16T22:43:30.461Z,98831.23
2019-03-16T22:46:00.196Z,98833.52
2019-03-16T22:48:29.784Z,98830.73
2019-03-16T22:50:59.394Z,98829.27
2019-03-16T22:53:29.011Z,98835.69
2019-03-16T22:55:58.592Z,98835.69
2019-03-16T22:58:28.159Z,98828.38
2019-03-16T23:00:57.851Z,98828.23
2019-03-16T23:03:27.423Z,98822.13
2019-03-16T23:05:57.047Z,98821.52
2019-03-16T23:08:27.609Z,98822.41
2019-03-16T23:10:57.208Z,98819.77
2019-03-16T23:13:26.855Z,98818.34
2019-03-16T23:15:56.392Z,98820.84
2019-03-16T23:18:25.987Z,98818.73
2019-03-16T23:20:55.554Z,98817.95
2019-03-16T23:23:25.127Z,98820.66
2019-03-16T23:25:54.729Z,98818.57
2019-03-16T23:28:24.299Z,98825.18
2019-03-16T23:30:53.857Z,98831.28
2019-03-16T23:33:23.440Z,98831.30
2019-03-16T23:35:53.005Z,98833.25
2019-03-16T23:38:22.634Z,98838.50
2019-03-16T23:40:52.244Z,98828.77
2019-03-16T23:43:21.829Z,98840.08
2019-03-16T23:45:51.404Z,98834.23
2019-03-16T23:48:21.005Z,98829.14
2019-03-16T23:50:50.595Z,98832.47
2019-03-16T23:53:20.162Z,98831.20
2019-03-16T23:55:49.761Z,98835.98
2019-03-16T23:58:19.403Z,98840.46
